createdAt,value
2022-12-18T00:01:42.668Z,66.43
2022-12-18T00:04:09.246Z,64.84
2022-12-18T00:06:35.614Z,64.43
2022-12-18T00:09:01.840Z,63.70
2022-12-18T00:11:28.088Z,64.63
2022-12-18T00:13:54.319Z,63.52
2022-12-18T00:16:20.573Z,63.56
2022-12-18T00:18:46.944Z,64.33
2022-12-18T00:21:13.219Z,64.44
2022-12-18T00:23:39.798Z,63.65
2022-12-18T00:26:06.375Z,63.64
2022-12-18T00:28:32.671Z,63.81
2022-12-18T00:30:58.920Z,64.04
2022-12-18T00:33:25.238Z,64.33
2022-12-18T00:35:51.533Z,64.13
2022-12-18T00:38:17.763Z,63.30
2022-12-18T00:40:44.058Z,63.20
2022-12-18T00:43:10.286Z,63.80
2022-12-18T00:45:36.549Z,64.43
2022-12-18T00:48:02.873Z,63.42
2022-12-18T00:50:29.139Z,63.31
2022-12-18T00:52:55.382Z,62.71
2022-12-18T00:55:22.009Z,63.67
2022-12-18T00:57:48.253Z,62.88
2022-12-18T01:00:14.492Z,62.96
2022-12-18T01:02:40.926Z,62.60
2022-12-18T01:05:07.660Z,63.19
2022-12-18T01:07:33.898Z,62.97
2022-12-18T01:10:00.200Z,62.85
2022-12-18T01:12:26.494Z,61.22
2022-12-18T01:14:52.725Z,61.32
2022-12-18T01:17:19.028Z,62.05
2022-12-18T01:19:45.290Z,62.81
2022-12-18T01:22:11.513Z,62.60
2022-12-18T01:24:37.873Z,61.54
2022-12-18T01:27:04.120Z,61.32
2022-12-18T01:29:30.370Z,60.95
2022-12-18T01:31:56.662Z,62.54
2022-12-18T01:34:22.926Z,62.69
2022-12-18T01:36:49.173Z,64.08
2022-12-18T01:39:15.456Z,64.01
2022-12-18T01:41:41.707Z,64.66
2022-12-18T01:44:07.963Z,63.88
2022-12-18T01:46:34.280Z,63.26
2022-12-18T01:49:00.547Z,62.93
2022-12-18T01:51:26.792Z,62.41
2022-12-18T01:53:53.075Z,62.17
2022-12-18T01:56:19.301Z,62.29
2022-12-18T01:58:45.522Z,62.02
2022-12-18T02:01:12.033Z,62.35
2022-12-18T02:03:38.737Z,62.39
2022-12-18T02:06:05.239Z,62.16
2022-12-18T02:08:31.531Z,60.87
2022-12-18T02:10:57.829Z,61.25
2022-12-18T02:13:24.126Z,61.33
2022-12-18T02:15:50.411Z,61.49
2022-12-18T02:18:16.653Z,61.15
2022-12-18T02:20:42.924Z,61.02
2022-12-18T02:23:09.214Z,60.56
2022-12-18T02:25:35.497Z,60.41
2022-12-18T02:28:01.764Z,60.73
2022-12-18T02:30:28.136Z,60.87
2022-12-18T02:32:54.457Z,60.56
2022-12-18T02:35:20.834Z,60.20
2022-12-18T02:37:47.080Z,60.05
2022-12-18T02:40:13.394Z,59.76
2022-12-18T02:42:39.647Z,59.53
2022-12-18T02:45:05.872Z,59.13
2022-12-18T02:47:32.151Z,59.04
2022-12-18T02:49:58.372Z,59.72
2022-12-18T02:52:24.659Z,60.62
2022-12-18T02:54:51.453Z,59.83
2022-12-18T02:57:17.807Z,59.08
2022-12-18T02:59:44.035Z,59.08
2022-12-18T03:02:10.418Z,59.10
2022-12-18T03:04:36.832Z,59.64
2022-12-18T03:07:03.067Z,60.57
2022-12-18T03:09:29.317Z,60.09
2022-12-18T03:11:55.642Z,60.79
2022-12-18T03:14:21.904Z,61.24
2022-12-18T03:16:48.228Z,60.77
2022-12-18T03:19:14.565Z,59.94
2022-12-18T03:21:40.839Z,59.55
2022-12-18T03:24:07.208Z,59.10
2022-12-18T03:26:33.872Z,58.79
2022-12-18T03:29:00.155Z,59.17
2022-12-18T03:31:26.440Z,58.63
2022-12-18T03:33:52.753Z,59.00
2022-12-18T03:36:19.004Z,59.00
2022-12-18T03:38:45.243Z,59.50
2022-12-18T03:41:11.579Z,60.24
2022-12-18T03:43:38.190Z,60.75
2022-12-18T03:46:04.701Z,60.54
2022-12-18T03:48:31.012Z,60.23
2022-12-18T03:50:57.289Z,60.00
2022-12-18T03:53:23.497Z,58.92
2022-12-18T03:55:49.785Z,58.10
2022-12-18T03:58:17.507Z,58.44
2022-12-18T04:00:43.797Z,58.76
2022-12-18T04:03:10.143Z,58.86
2022-12-18T04:05:36.434Z,58.74
2022-12-18T04:08:02.663Z,58.38
2022-12-18T04:10:28.954Z,59.56
2022-12-18T04:13:15.183Z,59.74
2022-12-18T04:15:56.179Z,59.70
2022-12-18T04:18:22.536Z,58.39
2022-12-18T04:20:48.796Z,57.64
2022-12-18T04:23:15.025Z,57.61
2022-12-18T04:25:41.317Z,56.61
2022-12-18T04:28:07.579Z,56.28
2022-12-18T04:30:33.808Z,56.73
2022-12-18T04:33:00.155Z,57.32
2022-12-18T04:35:26.726Z,58.71
2022-12-18T04:37:52.959Z,58.89
2022-12-18T04:40:19.269Z,59.77
2022-12-18T04:42:45.546Z,58.76
2022-12-18T04:45:11.831Z,57.56
2022-12-18T04:47:38.138Z,57.61
2022-12-18T04:50:04.409Z,57.84
2022-12-18T04:52:30.647Z,57.35
2022-12-18T04:54:56.881Z,58.01
2022-12-18T04:57:23.129Z,57.13
2022-12-18T04:59:49.361Z,57.46
2022-12-18T05:02:15.735Z,57.31
2022-12-18T05:04:42.077Z,56.71
2022-12-18T05:07:08.356Z,56.45
2022-12-18T05:09:34.644Z,57.38
2022-12-18T05:12:00.911Z,57.56
2022-12-18T05:14:27.186Z,57.37
2022-12-18T05:16:57.921Z,57.60
2022-12-18T05:19:27.948Z,57.85
2022-12-18T05:21:54.236Z,57.07
2022-12-18T05:24:20.460Z,56.34
2022-12-18T05:26:46.712Z,55.72
2022-12-18T05:29:13.050Z,55.80
2022-12-18T05:31:40.125Z,55.40
2022-12-18T05:34:06.430Z,55.63
2022-12-18T05:36:32.784Z,54.90
2022-12-18T05:38:59.042Z,56.11
2022-12-18T05:41:25.335Z,55.90
2022-12-18T05:43:51.655Z,55.38
2022-12-18T05:46:17.928Z,56.87
2022-12-18T05:48:44.226Z,56.48
2022-12-18T05:51:10.537Z,55.91
2022-12-18T05:53:37.128Z,56.00
2022-12-18T05:56:03.693Z,55.59
2022-12-18T05:58:29.978Z,56.59
2022-12-18T06:00:56.220Z,56.21
2022-12-18T06:03:22.659Z,55.53
2022-12-18T06:05:49.149Z,54.97
2022-12-18T06:08:15.419Z,53.96
2022-12-18T06:10:41.662Z,54.30
2022-12-18T06:13:07.977Z,54.22
2022-12-18T06:15:34.205Z,54.99
2022-12-18T06:18:00.547Z,54.74
2022-12-18T06:20:30.529Z,54.69
2022-12-18T06:22:59.398Z,54.59
2022-12-18T06:25:25.664Z,54.83
2022-12-18T06:27:55.896Z,54.64
2022-12-18T06:30:22.108Z,54.24
2022-12-18T06:32:53.082Z,54.46
2022-12-18T06:35:22.592Z,54.74
2022-12-18T06:37:49.072Z,54.39
2022-12-18T06:40:15.333Z,54.36
2022-12-18T06:42:41.627Z,54.09
2022-12-18T06:45:07.933Z,54.70
2022-12-18T06:47:34.184Z,54.13
2022-12-18T06:50:00.486Z,54.15
2022-12-18T06:52:26.785Z,53.74
2022-12-18T06:54:53.014Z,53.24
2022-12-18T06:57:19.358Z,52.47
2022-12-18T06:59:45.611Z,53.08
2022-12-18T07:02:11.975Z,52.99
2022-12-18T07:04:38.337Z,52.80
2022-12-18T07:07:04.589Z,51.97
2022-12-18T07:09:30.824Z,50.93
2022-12-18T07:11:57.121Z,51.59
2022-12-18T07:14:24.164Z,52.25
2022-12-18T07:16:50.446Z,51.86
2022-12-18T07:19:16.765Z,50.92
2022-12-18T07:21:43.034Z,52.49
2022-12-18T07:24:09.297Z,52.31
2022-12-18T07:26:35.541Z,52.91
2022-12-18T07:29:01.845Z,52.31
2022-12-18T07:31:28.225Z,51.24
2022-12-18T07:33:54.587Z,52.15
2022-12-18T07:36:20.841Z,52.31
2022-12-18T07:38:47.128Z,52.72
2022-12-18T07:41:13.420Z,52.61
2022-12-18T07:43:40.015Z,53.22
2022-12-18T07:46:06.596Z,51.79
2022-12-18T07:48:32.892Z,53.04
2022-12-18T07:50:59.111Z,52.29
2022-12-18T07:53:25.426Z,52.18
2022-12-18T07:56:18.354Z,51.42
2022-12-18T07:58:37.938Z,52.09
2022-12-18T08:01:04.227Z,53.39
2022-12-18T08:03:30.519Z,52.19
2022-12-18T08:05:56.778Z,52.32
2022-12-18T08:08:23.036Z,52.63
2022-12-18T08:10:49.261Z,52.76
2022-12-18T08:13:15.540Z,52.36
2022-12-18T08:15:41.809Z,52.33
2022-12-18T08:18:12.653Z,52.73
2022-12-18T08:20:40.425Z,52.66
2022-12-18T08:23:06.714Z,52.82
2022-12-18T08:25:32.952Z,50.88
2022-12-18T08:27:59.216Z,51.10
2022-12-18T08:30:25.499Z,51.10
2022-12-18T08:32:52.066Z,50.51
2022-12-18T08:35:18.905Z,50.13
2022-12-18T08:37:45.197Z,50.26
2022-12-18T08:40:11.432Z,50.57
2022-12-18T08:42:37.720Z,50.59
2022-12-18T08:45:03.980Z,50.31
2022-12-18T08:47:31.112Z,49.74
2022-12-18T08:49:57.465Z,50.69
2022-12-18T08:52:23.728Z,50.80
2022-12-18T08:54:49.956Z,50.43
2022-12-18T08:57:16.316Z,49.56
2022-12-18T08:59:42.593Z,50.86
2022-12-18T09:02:08.936Z,51.34
2022-12-18T09:04:35.309Z,51.08
2022-12-18T09:07:01.593Z,49.96
2022-12-18T09:09:27.849Z,49.38
2022-12-18T09:11:54.139Z,49.63
2022-12-18T09:14:20.372Z,49.08
2022-12-18T09:16:46.631Z,49.38
2022-12-18T09:19:13.003Z,49.61
2022-12-18T09:21:41.220Z,48.71
2022-12-18T09:24:11.017Z,47.63
2022-12-18T09:26:37.327Z,46.42
2022-12-18T09:29:03.582Z,48.00
2022-12-18T09:31:29.830Z,48.46
2022-12-18T09:33:56.116Z,48.50
2022-12-18T09:36:22.359Z,48.24
2022-12-18T09:38:48.594Z,48.00
2022-12-18T09:41:14.874Z,48.23
2022-12-18T09:43:41.153Z,48.35
2022-12-18T09:46:07.480Z,48.56
2022-12-18T09:48:33.801Z,48.52
2022-12-18T09:51:02.232Z,47.45
2022-12-18T09:53:28.464Z,46.97
2022-12-18T09:55:54.770Z,47.10
2022-12-18T09:58:21.054Z,46.82
2022-12-18T10:00:47.297Z,45.14
2022-12-18T10:03:13.749Z,46.22
2022-12-18T10:05:40.120Z,46.12
2022-12-18T10:08:06.380Z,45.62
2022-12-18T10:10:32.685Z,44.53
2022-12-18T10:13:04.242Z,43.94
2022-12-18T10:15:31.115Z,43.34
2022-12-18T10:17:57.467Z,42.83
2022-12-18T10:20:23.716Z,42.37
2022-12-18T10:22:49.961Z,43.39
2022-12-18T10:25:16.206Z,43.63
2022-12-18T10:27:42.453Z,45.39
2022-12-18T10:30:08.742Z,44.80
2022-12-18T10:32:34.969Z,44.90
2022-12-18T10:35:03.599Z,44.73
2022-12-18T10:37:29.851Z,45.86
2022-12-18T10:39:56.099Z,46.43
2022-12-18T10:42:22.445Z,46.39
2022-12-18T10:44:48.722Z,45.11
2022-12-18T10:47:14.956Z,43.76
2022-12-18T10:49:41.354Z,44.75
2022-12-18T10:52:07.603Z,44.09
2022-12-18T10:54:34.066Z,43.42
2022-12-18T10:57:00.425Z,43.74
2022-12-18T10:59:26.662Z,43.64
2022-12-18T11:01:53.036Z,43.67
2022-12-18T11:04:19.558Z,43.15
2022-12-18T11:06:45.819Z,43.65
2022-12-18T11:09:14.481Z,43.59
2022-12-18T11:11:41.823Z,42.84
2022-12-18T11:14:08.199Z,43.36
2022-12-18T11:16:34.476Z,43.45
2022-12-18T11:19:00.789Z,43.98
2022-12-18T11:21:27.113Z,43.60
2022-12-18T11:23:53.350Z,44.51
2022-12-18T11:26:19.642Z,43.75
2022-12-18T11:28:46.035Z,43.54
2022-12-18T11:31:12.355Z,43.54
2022-12-18T11:33:38.685Z,41.07
2022-12-18T11:36:04.961Z,42.74
2022-12-18T11:38:31.180Z,43.63
2022-12-18T11:40:57.631Z,43.10
2022-12-18T11:43:23.893Z,43.27
2022-12-18T11:45:50.169Z,43.20
2022-12-18T11:48:16.616Z,41.73
2022-12-18T11:50:42.930Z,42.59
2022-12-18T11:53:09.161Z,40.86
2022-12-18T11:55:35.448Z,41.61
2022-12-18T11:58:03.258Z,41.78
2022-12-18T12:00:29.516Z,41.84
2022-12-18T12:02:55.857Z,42.07
2022-12-18T12:05:23.765Z,41.52
2022-12-18T12:07:50.018Z,43.01
2022-12-18T12:10:16.303Z,40.77
2022-12-18T12:12:47.929Z,40.55
2022-12-18T12:15:14.763Z,42.41
2022-12-18T12:17:41.064Z,41.54
2022-12-18T12:20:07.347Z,41.59
2022-12-18T12:22:34.985Z,41.19
2022-12-18T12:25:01.265Z,40.54
2022-12-18T12:27:27.491Z,41.04
2022-12-18T12:29:53.733Z,41.49
2022-12-18T12:32:20.044Z,41.18
2022-12-18T12:34:46.322Z,41.06
2022-12-18T12:37:12.582Z,41.07
2022-12-18T12:39:38.878Z,41.42
2022-12-18T12:42:05.170Z,41.87
2022-12-18T12:44:31.398Z,38.15
2022-12-18T12:46:57.832Z,36.92
2022-12-18T12:49:24.267Z,36.56
2022-12-18T12:51:50.769Z,36.22
2022-12-18T12:54:17.055Z,40.07
2022-12-18T12:56:43.879Z,40.50
2022-12-18T12:59:10.175Z,39.07
2022-12-18T13:01:37.788Z,40.95
2022-12-18T13:04:04.286Z,42.01
2022-12-18T13:06:31.517Z,41.11
2022-12-18T13:08:57.773Z,40.33
2022-12-18T13:11:24.053Z,42.31
2022-12-18T13:13:51.236Z,40.37
2022-12-18T13:16:17.676Z,41.00
2022-12-18T13:18:44.475Z,41.62
2022-12-18T13:21:12.173Z,41.83
2022-12-18T13:23:38.442Z,40.75
2022-12-18T13:26:05.308Z,40.90
2022-12-18T13:28:31.620Z,40.74
2022-12-18T13:30:57.847Z,41.21
2022-12-18T13:33:25.188Z,40.72
2022-12-18T13:35:51.644Z,40.77
2022-12-18T13:38:17.961Z,41.46
2022-12-18T13:40:47.393Z,42.73
2022-12-18T13:43:13.680Z,42.63
2022-12-18T13:45:39.954Z,43.13
2022-12-18T13:48:07.396Z,43.96
2022-12-18T13:50:36.018Z,44.15
2022-12-18T13:53:02.579Z,43.89
2022-12-18T13:55:29.036Z,43.50
2022-12-18T13:57:55.303Z,43.02
2022-12-18T14:00:22.523Z,42.34
2022-12-18T14:02:48.992Z,41.45
2022-12-18T14:05:15.370Z,40.25
2022-12-18T14:07:45.257Z,39.63
2022-12-18T14:10:41.941Z,39.18
2022-12-18T14:13:02.281Z,42.54
2022-12-18T14:15:29.568Z,41.99
2022-12-18T14:17:55.852Z,40.38
2022-12-18T14:20:22.163Z,39.44
2022-12-18T14:22:48.452Z,38.89
2022-12-18T14:25:14.709Z,39.33
2022-12-18T14:27:41.074Z,39.91
2022-12-18T14:30:07.344Z,37.38
2022-12-18T14:32:33.583Z,35.68
2022-12-18T14:34:59.886Z,37.14
2022-12-18T14:37:26.207Z,39.19
2022-12-18T14:39:52.506Z,39.30
2022-12-18T14:42:18.791Z,39.93
2022-12-18T14:45:14.060Z,39.86
2022-12-18T14:47:31.374Z,40.61
2022-12-18T14:49:57.623Z,40.53
2022-12-18T14:52:23.952Z,41.86
2022-12-18T14:54:51.005Z,41.95
2022-12-18T14:57:17.312Z,43.23
2022-12-18T14:59:43.553Z,41.21
2022-12-18T15:02:10.019Z,43.86
2022-12-18T15:04:38.249Z,44.18
2022-12-18T15:07:04.503Z,43.78
2022-12-18T15:09:30.789Z,43.07
2022-12-18T15:11:57.112Z,42.30
2022-12-18T15:14:23.355Z,41.20
2022-12-18T15:16:49.663Z,40.36
2022-12-18T15:19:16.285Z,40.39
2022-12-18T15:21:42.509Z,40.20
2022-12-18T15:24:08.823Z,40.22
2022-12-18T15:26:35.338Z,39.93
2022-12-18T15:29:01.586Z,39.12
2022-12-18T15:31:27.954Z,38.84
2022-12-18T15:33:54.303Z,37.91
2022-12-18T15:36:20.556Z,40.74
2022-12-18T15:38:52.551Z,40.91
2022-12-18T15:41:24.214Z,41.39
2022-12-18T15:43:50.858Z,40.76
2022-12-18T15:46:17.198Z,41.97
2022-12-18T15:48:43.495Z,41.38
2022-12-18T15:51:09.741Z,41.12
2022-12-18T15:53:36.044Z,41.50
2022-12-18T15:56:02.319Z,41.95
2022-12-18T15:58:29.273Z,41.72
2022-12-18T16:00:55.557Z,41.06
2022-12-18T16:03:21.859Z,42.42
2022-12-18T16:05:49.705Z,42.90
2022-12-18T16:08:15.988Z,43.99
2022-12-18T16:10:42.282Z,43.21
2022-12-18T16:13:08.508Z,43.24
2022-12-18T16:15:34.861Z,42.57
2022-12-18T16:18:01.365Z,42.34
2022-12-18T16:20:27.622Z,41.61
2022-12-18T16:22:53.903Z,41.94
2022-12-18T16:25:20.158Z,42.10
2022-12-18T16:27:46.377Z,42.37
2022-12-18T16:30:14.646Z,42.41
2022-12-18T16:32:40.911Z,40.48
2022-12-18T16:35:07.209Z,40.86
2022-12-18T16:37:33.498Z,40.62
2022-12-18T16:39:59.788Z,40.03
2022-12-18T16:42:26.061Z,41.65
2022-12-18T16:44:52.383Z,41.62
2022-12-18T16:47:18.637Z,41.05
2022-12-18T16:49:44.860Z,40.65
2022-12-18T16:52:11.159Z,40.99
2022-12-18T16:54:37.436Z,40.59
2022-12-18T16:57:03.656Z,39.53
2022-12-18T16:59:30.045Z,39.19
2022-12-18T17:01:56.492Z,39.15
2022-12-18T17:04:22.826Z,39.70
2022-12-18T17:06:49.064Z,41.77
2022-12-18T17:09:15.380Z,42.37
2022-12-18T17:11:41.626Z,40.96
2022-12-18T17:14:07.877Z,42.16
2022-12-18T17:16:34.257Z,41.00
2022-12-18T17:19:01.057Z,42.22
2022-12-18T17:21:27.325Z,40.90
2022-12-18T17:23:53.609Z,43.14
2022-12-18T17:26:19.904Z,43.30
2022-12-18T17:28:46.146Z,41.72
2022-12-18T17:31:12.479Z,42.12
2022-12-18T17:33:39.024Z,41.45
2022-12-18T17:36:05.480Z,41.20
2022-12-18T17:38:31.791Z,41.50
2022-12-18T17:40:58.051Z,40.42
2022-12-18T17:43:24.315Z,41.73
2022-12-18T17:45:50.601Z,41.61
2022-12-18T17:48:16.828Z,41.03
2022-12-18T17:50:43.139Z,42.12
2022-12-18T17:53:09.445Z,41.14
2022-12-18T17:55:35.844Z,41.13
2022-12-18T17:58:02.119Z,41.48
2022-12-18T18:00:28.438Z,42.13
2022-12-18T18:02:54.978Z,41.92
2022-12-18T18:05:21.361Z,42.16
2022-12-18T18:07:47.900Z,41.88
2022-12-18T18:10:14.189Z,41.63
2022-12-18T18:12:40.441Z,42.33
2022-12-18T18:15:06.818Z,40.84
2022-12-18T18:17:33.792Z,41.19
2022-12-18T18:20:00.034Z,42.31
2022-12-18T18:22:26.330Z,42.71
2022-12-18T18:24:52.851Z,41.03
2022-12-18T18:27:19.078Z,41.62
2022-12-18T18:29:45.385Z,39.64
2022-12-18T18:32:11.664Z,39.88
2022-12-18T18:34:37.914Z,40.40
2022-12-18T18:37:06.863Z,39.54
2022-12-18T18:39:33.169Z,39.85
2022-12-18T18:41:59.423Z,40.99
2022-12-18T18:44:26.450Z,41.32
2022-12-18T18:46:52.875Z,42.72
2022-12-18T18:49:19.106Z,42.65
2022-12-18T18:51:45.420Z,41.34
2022-12-18T18:54:11.692Z,42.00
2022-12-18T18:57:04.105Z,41.87
2022-12-18T18:59:29.690Z,42.69
2022-12-18T19:01:58.159Z,43.58
2022-12-18T19:04:24.573Z,42.63
2022-12-18T19:06:50.834Z,42.35
2022-12-18T19:09:17.106Z,40.68
2022-12-18T19:11:43.605Z,37.48
2022-12-18T19:14:09.851Z,37.75
2022-12-18T19:16:36.183Z,38.09
2022-12-18T19:19:03.063Z,38.53
2022-12-18T19:21:29.387Z,40.34
2022-12-18T19:23:58.141Z,40.44
2022-12-18T19:26:27.873Z,41.57
2022-12-18T19:28:54.606Z,41.46
2022-12-18T19:31:25.443Z,40.87
2022-12-18T19:33:53.449Z,41.03
2022-12-18T19:36:19.724Z,40.70
2022-12-18T19:38:46.195Z,40.78
2022-12-18T19:41:12.783Z,40.74
2022-12-18T19:43:40.163Z,39.76
2022-12-18T19:46:06.524Z,39.55
2022-12-18T19:48:32.798Z,40.30
2022-12-18T19:50:59.033Z,39.46
2022-12-18T19:53:25.358Z,39.63
2022-12-18T19:55:51.683Z,39.92
2022-12-18T19:58:17.975Z,38.81
2022-12-18T20:00:46.799Z,40.18
2022-12-18T20:03:21.479Z,39.26
2022-12-18T20:05:51.701Z,38.92
2022-12-18T20:08:17.947Z,40.80
2022-12-18T20:10:44.200Z,38.72
2022-12-18T20:13:10.857Z,40.00
2022-12-18T20:15:40.516Z,38.55
2022-12-18T20:18:11.197Z,38.91
2022-12-18T20:20:38.334Z,39.77
2022-12-18T20:23:04.559Z,41.12
2022-12-18T20:25:30.805Z,40.18
2022-12-18T20:27:57.057Z,39.25
2022-12-18T20:30:23.839Z,41.91
2022-12-18T20:32:50.136Z,42.15
2022-12-18T20:35:16.470Z,37.43
2022-12-18T20:37:44.944Z,38.11
2022-12-18T20:40:15.004Z,39.12
2022-12-18T20:42:41.250Z,41.68
2022-12-18T20:45:07.490Z,42.56
2022-12-18T20:47:33.804Z,42.21
2022-12-18T20:50:00.112Z,43.00
2022-12-18T20:52:26.421Z,42.00
2022-12-18T20:54:52.701Z,42.49
2022-12-18T20:57:18.967Z,41.47
2022-12-18T20:59:48.341Z,40.73
2022-12-18T21:02:15.085Z,39.78
2022-12-18T21:04:41.450Z,37.77
2022-12-18T21:07:07.700Z,37.72
2022-12-18T21:09:38.119Z,36.66
2022-12-18T21:12:04.813Z,38.03
2022-12-18T21:14:31.066Z,40.04
2022-12-18T21:16:57.370Z,39.06
2022-12-18T21:19:23.718Z,38.43
2022-12-18T21:21:50.125Z,36.41
2022-12-18T21:24:16.376Z,35.72
2022-12-18T21:26:45.646Z,36.63
2022-12-18T21:29:12.243Z,39.00
2022-12-18T21:31:38.539Z,39.16
2022-12-18T21:34:04.761Z,39.16
2022-12-18T21:36:30.989Z,37.89
2022-12-18T21:38:57.284Z,37.32
2022-12-18T21:41:24.309Z,36.73
2022-12-18T21:43:50.546Z,35.55
2022-12-18T21:46:16.874Z,37.83
2022-12-18T21:48:43.162Z,38.28
2022-12-18T21:51:09.434Z,37.86
2022-12-18T21:53:35.730Z,37.21
2022-12-18T21:56:01.986Z,38.11
2022-12-18T21:58:28.208Z,40.03
2022-12-18T22:00:54.558Z,40.13
2022-12-18T22:03:20.902Z,40.96
2022-12-18T22:05:47.215Z,40.25
2022-12-18T22:08:17.681Z,40.17
2022-12-18T22:10:43.920Z,40.66
2022-12-18T22:13:10.494Z,41.54
2022-12-18T22:15:36.843Z,40.47
2022-12-18T22:18:03.167Z,41.20
2022-12-18T22:20:29.723Z,41.43
2022-12-18T22:22:56.420Z,40.29
2022-12-18T22:25:22.717Z,39.29
2022-12-18T22:27:48.954Z,39.50
2022-12-18T22:30:15.390Z,41.20
2022-12-18T22:32:41.657Z,42.22
2022-12-18T22:35:12.927Z,43.40
2022-12-18T22:37:42.152Z,40.81
2022-12-18T22:40:08.629Z,38.92
2022-12-18T22:42:35.090Z,39.44
2022-12-18T22:45:01.472Z,40.53
2022-12-18T22:47:30.089Z,42.10
2022-12-18T22:49:56.802Z,41.06
2022-12-18T22:52:24.304Z,40.08
2022-12-18T22:54:51.167Z,43.03
2022-12-18T22:57:19.690Z,42.64
2022-12-18T22:59:45.909Z,41.79
2022-12-18T23:02:12.242Z,42.46
2022-12-18T23:04:38.580Z,43.95
2022-12-18T23:07:05.028Z,44.65
2022-12-18T23:09:31.404Z,45.32
2022-12-18T23:11:57.644Z,44.98
2022-12-18T23:14:23.953Z,44.98
2022-12-18T23:16:50.774Z,44.78
2022-12-18T23:19:19.244Z,45.39
2022-12-18T23:21:45.505Z,44.52
2022-12-18T23:24:11.818Z,44.63
2022-12-18T23:26:38.060Z,44.07
2022-12-18T23:29:04.320Z,43.02
2022-12-18T23:31:30.704Z,43.59
2022-12-18T23:33:57.016Z,43.82
2022-12-18T23:36:23.273Z,44.47
2022-12-18T23:38:49.568Z,42.83
2022-12-18T23:41:15.785Z,43.21
2022-12-18T23:43:42.027Z,43.41
2022-12-18T23:46:10.516Z,43.14
2022-12-18T23:48:36.784Z,41.10
2022-12-18T23:51:03.053Z,41.56
2022-12-18T23:53:29.343Z,40.71
2022-12-18T23:55:55.575Z,40.15
2022-12-18T23:58:23.405Z,40.14
